Time;durP1;ratioP1;P1;durP2;ratioP2;P2;SDS_P1;SDS_P2;PMS_P1;PMS_P2;Temp;Humidity;BMP_temperature;BMP_pressure;BME280_temperature;BME280_humidity;BME280_pressure;Samples;Min_cycle;Max_cycle;Signal;HPM_P1;HPM_P2
2023/03/30 00:00:52;;;;;;;22.15;19.75;;;;;20.50;99627.00;;;;2085263;28;20323;-71
2023/03/30 00:01:53;;;;;;;22.20;19.83;;;;;20.50;99638.00;;;;2087831;28;20232;-71
2023/03/30 00:02:54;;;;;;;20.90;18.70;;;;;20.50;99625.00;;;;2088611;28;20263;-70
2023/03/30 00:03:54;;;;;;;20.63;18.50;;;;;20.50;99626.00;;;;2088349;28;20475;-70
2023/03/30 00:04:54;;;;;;;22.90;18.83;;;;;20.50;99619.00;;;;2082567;28;20217;-70
2023/03/30 00:05:58;;;;;;;20.20;18.00;;;;;20.50;99621.00;;;;2087134;28;20229;-70
2023/03/30 00:06:58;;;;;;;20.02;17.98;;;;;20.50;99615.00;;;;2084391;28;20304;-70
2023/03/30 00:07:59;;;;;;;20.40;18.03;;;;;20.50;99616.00;;;;2086324;28;20204;-70
2023/03/30 00:08:59;;;;;;;19.90;17.30;;;;;20.50;99621.00;;;;2088020;28;20256;-70
2023/03/30 00:10:02;;;;;;;19.60;16.90;;;;;20.50;99619.00;;;;2083621;28;20479;-70
2023/03/30 00:11:07;;;;;;;18.55;16.30;;;;;20.60;99616.00;;;;2088385;28;20286;-71
2023/03/30 00:12:12;;;;;;;18.13;16.23;;;;;20.50;99614.00;;;;2081942;28;20229;-70
2023/03/30 00:13:12;;;;;;;18.77;16.77;;;;;20.50;99606.00;;;;2080757;28;20221;-70
2023/03/30 00:14:16;;;;;;;18.20;16.30;;;;;20.50;99610.00;;;;2087819;28;20243;-70
2023/03/30 00:15:18;;;;;;;17.85;15.90;;;;;20.50;99613.00;;;;2086029;28;20299;-71
2023/03/30 00:16:18;;;;;;;17.92;15.88;;;;;20.50;99604.00;;;;2081492;28;20217;-71
2023/03/30 00:17:19;;;;;;;19.03;15.90;;;;;20.50;99591.00;;;;2087246;28;20212;-70
2023/03/30 00:18:20;;;;;;;18.07;16.23;;;;;20.50;99591.00;;;;2087285;28;20263;-71
2023/03/30 00:19:20;;;;;;;16.55;14.60;;;;;20.50;99590.00;;;;2081841;28;20572;-71
2023/03/30 00:20:21;;;;;;;17.33;15.53;;;;;20.50;99604.00;;;;2086963;28;20263;-70
2023/03/30 00:21:21;;;;;;;17.70;15.90;;;;;20.50;99608.00;;;;2081509;28;20214;-70
2023/03/30 00:22:22;;;;;;;17.30;15.50;;;;;20.50;99604.00;;;;2084761;28;20312;-70
2023/03/30 00:23:22;;;;;;;16.53;14.80;;;;;20.50;99599.00;;;;2081821;28;20279;-71
2023/03/30 00:24:22;;;;;;;17.00;15.20;;;;;20.50;99592.00;;;;2085929;28;20212;-70
2023/03/30 00:25:23;;;;;;;16.03;14.30;;;;;20.50;99585.00;;;;2084694;28;20212;-71
2023/03/30 00:26:23;;;;;;;16.87;14.80;;;;;20.50;99587.00;;;;2087173;28;20212;-70
2023/03/30 00:27:23;;;;;;;16.00;14.30;;;;;20.50;99581.00;;;;2088309;28;20250;-71
2023/03/30 00:28:25;;;;;;;17.20;15.00;;;;;20.50;99587.00;;;;2088278;28;20233;-70
2023/03/30 00:29:25;;;;;;;15.20;13.70;;;;;20.50;99582.00;;;;2078263;28;20213;-71
2023/03/30 00:30:25;;;;;;;17.20;14.33;;;;;20.50;99574.00;;;;2079778;28;20218;-70
2023/03/30 00:31:26;;;;;;;17.63;15.43;;;;;20.50;99579.00;;;;2087347;28;20278;-71
2023/03/30 00:32:26;;;;;;;17.30;15.13;;;;;20.50;99577.00;;;;2088346;28;20216;-71
2023/03/30 00:33:26;;;;;;;15.90;14.30;;;;;20.50;99566.00;;;;2087405;28;20244;-70
2023/03/30 00:34:27;;;;;;;16.13;13.73;;;;;20.50;99572.00;;;;2086253;28;20201;-70
2023/03/30 00:35:29;;;;;;;15.80;14.10;;;;;20.50;99552.00;;;;2087312;28;20573;-70
2023/03/30 00:36:29;;;;;;;13.57;12.02;;;;;20.50;99579.00;;;;2087413;28;20212;-70
2023/03/30 00:37:30;;;;;;;14.80;12.83;;;;;20.50;99585.00;;;;2088562;28;20205;-70
2023/03/30 00:38:30;;;;;;;16.17;14.30;;;;;20.50;99585.00;;;;2087301;28;20216;-70
2023/03/30 00:39:30;;;;;;;15.33;13.17;;;;;20.50;99585.00;;;;2086278;28;20596;-70
2023/03/30 00:40:31;;;;;;;15.30;13.70;;;;;20.50;99579.00;;;;2087241;28;20583;-71
2023/03/30 00:41:33;;;;;;;14.15;12.75;;;;;20.50;99587.00;;;;2088310;28;20699;-70
2023/03/30 00:42:34;;;;;;;15.75;14.05;;;;;20.50;99580.00;;;;2087952;28;20323;-70
2023/03/30 00:43:56;;;;;;;14.43;12.68;;;;;20.50;99575.00;;;;2087641;28;20266;-70
2023/03/30 00:45:18;;;;;;;13.18;11.85;;;;;20.40;99565.00;;;;2077881;28;20732;-70
2023/03/30 00:46:18;;;;;;;13.70;12.30;;;;;20.50;99571.00;;;;2081910;28;20212;-71
2023/03/30 00:47:19;;;;;;;14.77;12.33;;;;;20.40;99569.00;;;;2071704;28;20238;-70
2023/03/30 00:48:21;;;;;;;14.23;12.77;;;;;20.50;99539.00;;;;2072194;28;20233;-71
2023/03/30 00:49:22;;;;;;;14.23;12.70;;;;;20.40;99575.00;;;;2069403;28;20456;-71
2023/03/30 00:50:28;;;;;;;13.60;12.13;;;;;20.40;99576.00;;;;2063480;28;20270;-71
2023/03/30 00:51:29;;;;;;;13.77;11.02;;;;;20.40;99540.00;;;;2077530;28;20225;-70
2023/03/30 00:52:29;;;;;;;13.53;11.87;;;;;20.40;99574.00;;;;2082875;28;20238;-71
2023/03/30 00:53:35;;;;;;;13.43;11.53;;;;;20.40;99564.00;;;;2085615;28;20239;-70
2023/03/30 00:54:35;;;;;;;12.57;10.30;;;;;20.50;99556.00;;;;2075482;28;20205;-70
2023/03/30 00:55:36;;;;;;;12.60;11.37;;;;;20.40;99562.00;;;;2079472;28;20553;-70
2023/03/30 00:56:37;;;;;;;12.32;11.10;;;;;20.40;99567.00;;;;2076699;28;20217;-70
2023/03/30 00:57:38;;;;;;;13.40;12.00;;;;;20.50;99569.00;;;;2074403;28;20198;-70
2023/03/30 00:58:38;;;;;;;13.55;11.57;;;;;20.50;99572.00;;;;2070632;28;20268;-71
2023/03/30 00:59:39;;;;;;;12.30;11.10;;;;;20.40;99550.00;;;;2066571;28;20198;-71
2023/03/30 01:00:39;;;;;;;12.87;11.47;;;;;20.40;99550.00;;;;2065141;28;20625;-70
2023/03/30 01:01:40;;;;;;;13.27;10.23;;;;;20.40;99550.00;;;;2063178;28;20206;-71
2023/03/30 01:02:44;;;;;;;12.47;11.23;;;;;20.40;99555.00;;;;2079476;28;20205;-71
2023/03/30 01:03:46;;;;;;;12.55;11.25;;;;;20.40;99552.00;;;;2067477;28;20265;-70
2023/03/30 01:04:47;;;;;;;12.80;10.65;;;;;20.50;99556.00;;;;2068927;28;20222;-71
2023/03/30 01:05:48;;;;;;;13.05;11.68;;;;;20.40;99554.00;;;;2071522;28;20222;-70
2023/03/30 01:06:48;;;;;;;12.00;10.00;;;;;20.40;99556.00;;;;2078264;28;20749;-71
2023/03/30 01:07:49;;;;;;;12.60;11.20;;;;;20.40;99514.00;;;;2069874;28;20704;-70
2023/03/30 01:08:50;;;;;;;12.20;10.87;;;;;20.40;99541.00;;;;2065000;28;20226;-71
2023/03/30 01:09:51;;;;;;;12.68;11.05;;;;;20.40;99541.00;;;;2065035;28;20223;-70
2023/03/30 01:10:52;;;;;;;11.60;9.55;;;;;20.40;99526.00;;;;2073134;28;20225;-71
2023/03/30 01:11:52;;;;;;;11.90;10.33;;;;;20.40;99531.00;;;;2072213;28;21009;-70
2023/03/30 01:12:52;;;;;;;11.90;9.97;;;;;20.40;99525.00;;;;2078281;28;20240;-71
2023/03/30 01:13:57;;;;;;;11.97;10.67;;;;;20.40;99527.00;;;;2078004;28;20212;-70
2023/03/30 01:14:57;;;;;;;11.88;10.55;;;;;20.40;99526.00;;;;2077811;28;20266;-70
2023/03/30 01:16:17;;;;;;;11.07;9.87;;;;;20.40;99535.00;;;;2072916;28;20628;-70
2023/03/30 01:17:35;;;;;;;10.73;9.23;;;;;20.40;99536.00;;;;2084508;28;20711;-71
2023/03/30 01:18:46;;;;;;;10.57;9.57;;;;;20.40;99541.00;;;;2078886;28;20216;-70
2023/03/30 01:20:08;;;;;;;10.10;9.07;;;;;20.40;99549.00;;;;2080914;28;20267;-71
2023/03/30 01:21:47;;;;;;;11.15;10.02;;;;;20.40;99541.00;;;;2078692;28;20320;-70
2023/03/30 01:22:51;;;;;;;10.10;9.02;;;;;20.40;99545.00;;;;2045554;28;20220;-71
2023/03/30 01:24:03;;;;;;;9.00;8.07;;;;;20.40;99540.00;;;;2082071;28;20372;-71
2023/03/30 01:25:25;;;;;;;12.98;9.75;;;;;20.40;99546.00;;;;2075317;28;20221;-71
2023/03/30 01:26:40;;;;;;;10.85;9.75;;;;;20.40;99543.00;;;;2076158;28;20266;-71
2023/03/30 01:27:56;;;;;;;10.88;9.77;;;;;20.40;99530.00;;;;2084040;28;20208;-71
2023/03/30 01:29:24;;;;;;;10.18;9.00;;;;;20.40;99545.00;;;;2077814;28;20304;-70
2023/03/30 01:30:59;;;;;;;8.60;7.68;;;;;20.40;99533.00;;;;2068064;28;20705;-71
2023/03/30 01:32:09;;;;;;;8.82;7.97;;;;;20.40;99529.00;;;;2076652;28;20206;-70
2023/03/30 01:33:21;;;;;;;10.52;8.73;;;;;20.40;99525.00;;;;2068712;28;20586;-70
2023/03/30 01:34:36;;;;;;;8.40;7.35;;;;;20.40;99534.00;;;;2078330;28;20288;-70
2023/03/30 01:35:43;;;;;;;9.00;8.10;;;;;20.40;99527.00;;;;2077105;28;20720;-71
2023/03/30 01:37:22;;;;;;;9.40;7.65;;;;;20.40;99531.00;;;;2075222;28;20231;-71
2023/03/30 01:38:56;;;;;;;9.77;8.55;;;;;20.40;99529.00;;;;2077266;28;20278;-70
2023/03/30 01:40:13;;;;;;;8.93;8.00;;;;;20.40;99533.00;;;;2074899;28;20218;-71
2023/03/30 01:41:18;;;;;;;9.98;8.85;;;;;20.40;99529.00;;;;2073073;28;20634;-71
2023/03/30 01:42:21;;;;;;;9.10;7.60;;;;;20.40;99530.00;;;;2057019;28;20215;-70
2023/03/30 01:44:09;;;;;;;8.70;7.80;;;;;20.40;99526.00;;;;2071557;28;20708;-71
2023/03/30 01:45:14;;;;;;;8.30;7.50;;;;;20.30;99532.00;;;;2052900;28;20219;-71
2023/03/30 01:46:24;;;;;;;8.77;7.88;;;;;20.30;99523.00;;;;2046382;28;20257;-70
2023/03/30 01:47:44;;;;;;;9.38;7.85;;;;;20.30;99542.00;;;;2046370;28;20236;-70
2023/03/30 01:48:55;;;;;;;8.82;7.57;;;;;20.30;99507.00;;;;2046046;29;20286;-71
2023/03/30 01:50:02;;;;;;;8.60;7.70;;;;;20.40;99537.00;;;;2046015;28;20220;-70
2023/03/30 01:51:05;;;;;;;8.40;7.40;;;;;20.30;99523.00;;;;2062374;28;20207;-71
2023/03/30 01:52:10;;;;;;;8.05;6.78;;;;;20.30;99543.00;;;;2060449;28;20222;-71
2023/03/30 01:53:22;;;;;;;7.63;6.82;;;;;20.30;99536.00;;;;2070932;28;20244;-70
2023/03/30 01:54:23;;;;;;;9.10;7.80;;;;;20.30;99536.00;;;;2069226;28;20213;-71
2023/03/30 01:55:37;;;;;;;7.70;6.35;;;;;20.30;99536.00;;;;2062563;28;20246;-70
2023/03/30 01:56:40;;;;;;;7.65;6.95;;;;;20.30;99542.00;;;;2073708;28;20252;-70
2023/03/30 01:58:09;;;;;;;7.68;6.75;;;;;20.30;99528.00;;;;2074493;28;20300;-71
2023/03/30 01:59:18;;;;;;;8.30;7.30;;;;;20.40;99535.00;;;;2069024;28;20218;-70
2023/03/30 02:00:21;;;;;;;8.60;7.70;;;;;20.30;99525.00;;;;2057087;28;20219;-70
2023/03/30 02:01:21;;;;;;;8.38;6.80;;;;;20.30;99531.00;;;;2057142;28;20219;-70
2023/03/30 02:02:29;;;;;;;8.80;7.37;;;;;20.30;99522.00;;;;2051313;28;20216;-71
2023/03/30 02:03:31;;;;;;;7.90;6.55;;;;;20.30;99537.00;;;;2046121;28;20221;-70
2023/03/30 02:04:34;;;;;;;7.15;6.45;;;;;20.30;99528.00;;;;2058827;28;20387;-70
2023/03/30 02:05:35;;;;;;;7.80;6.20;;;;;20.30;99543.00;;;;2064774;28;20210;-70
2023/03/30 02:06:46;;;;;;;6.80;6.10;;;;;20.30;99541.00;;;;2063209;28;20670;-70
2023/03/30 02:07:49;;;;;;;8.07;6.55;;;;;20.30;99528.00;;;;2076525;28;21022;-70
2023/03/30 02:08:50;;;;;;;8.23;6.45;;;;;20.30;99512.00;;;;2063992;28;20219;-71
2023/03/30 02:09:51;;;;;;;9.57;6.50;;;;;20.30;99507.00;;;;2063360;28;20254;-71
2023/03/30 02:10:52;;;;;;;8.65;6.78;;;;;20.30;99512.00;;;;2067874;28;20231;-70
2023/03/30 02:11:52;;;;;;;7.07;6.10;;;;;20.30;99513.00;;;;2055268;28;20279;-71
2023/03/30 02:12:53;;;;;;;6.67;5.63;;;;;20.30;99521.00;;;;2068353;28;20693;-71
2023/03/30 02:13:54;;;;;;;7.63;6.50;;;;;20.30;99507.00;;;;2078848;28;20279;-70
2023/03/30 02:14:56;;;;;;;6.90;5.93;;;;;20.30;99516.00;;;;2066879;28;20282;-71
2023/03/30 02:16:20;;;;;;;6.88;6.03;;;;;20.30;99521.00;;;;2062614;28;20210;-70
2023/03/30 02:17:21;;;;;;;6.32;5.68;;;;;20.30;99527.00;;;;2056231;28;20678;-70
2023/03/30 02:18:22;;;;;;;7.75;5.88;;;;;20.30;99505.00;;;;2064758;28;20721;-71
2023/03/30 02:19:22;;;;;;;7.33;5.90;;;;;20.30;99513.00;;;;2060458;28;20258;-71
2023/03/30 02:20:22;;;;;;;6.33;5.10;;;;;20.30;99515.00;;;;2061854;28;20236;-71
2023/03/30 02:21:23;;;;;;;6.60;5.87;;;;;20.30;99505.00;;;;2083110;28;20205;-71
2023/03/30 02:22:23;;;;;;;7.20;5.83;;;;;20.30;99500.00;;;;2070410;28;20567;-70
2023/03/30 02:23:27;;;;;;;6.67;5.27;;;;;20.30;99502.00;;;;2054047;28;20211;-71
2023/03/30 02:24:29;;;;;;;7.32;5.43;;;;;20.30;99497.00;;;;2060768;28;20276;-71
2023/03/30 02:25:29;;;;;;;7.07;5.10;;;;;20.30;99494.00;;;;2078420;28;20209;-70
2023/03/30 02:26:30;;;;;;;6.77;5.83;;;;;20.30;99503.00;;;;2079066;28;20257;-70
2023/03/30 02:27:31;;;;;;;7.10;5.25;;;;;20.30;99502.00;;;;2067959;28;20799;-70
2023/03/30 02:28:32;;;;;;;8.05;5.65;;;;;20.30;99509.00;;;;2074125;28;20210;-70
2023/03/30 02:29:32;;;;;;;5.93;5.20;;;;;20.30;99499.00;;;;2084720;28;20198;-71
2023/03/30 02:30:33;;;;;;;6.77;5.40;;;;;20.30;99502.00;;;;2083416;28;20213;-70
2023/03/30 02:31:33;;;;;;;5.70;5.10;;;;;20.30;99500.00;;;;2078535;28;20205;-70
2023/03/30 02:32:43;;;;;;;6.00;5.40;;;;;20.30;99504.00;;;;2073695;28;20237;-70
2023/03/30 02:34:05;;;;;;;9.20;5.68;;;;;20.30;99495.00;;;;2068947;28;20311;-70
2023/03/30 02:35:10;;;;;;;6.20;5.32;;;;;20.30;99506.00;;;;2081433;28;20866;-70
2023/03/30 02:36:19;;;;;;;5.72;5.18;;;;;20.30;99495.00;;;;2077719;28;21047;-70
2023/03/30 02:37:57;;;;;;;5.60;5.00;;;;;20.30;99499.00;;;;2078200;28;20248;-70
2023/03/30 02:39:03;;;;;;;6.53;5.25;;;;;20.30;99484.00;;;;2085030;28;20297;-71
2023/03/30 02:40:15;;;;;;;7.25;5.07;;;;;20.30;99493.00;;;;2076063;28;20640;-71
2023/03/30 02:41:44;;;;;;;6.38;5.60;;;;;20.30;99496.00;;;;2066178;28;20229;-70
2023/03/30 02:43:06;;;;;;;6.43;5.05;;;;;20.30;99495.00;;;;2080895;28;20564;-70
2023/03/30 02:44:28;;;;;;;6.47;5.15;;;;;20.30;99480.00;;;;2087543;28;20282;-71
2023/03/30 02:45:52;;;;;;;5.38;4.80;;;;;20.30;99481.00;;;;2075751;28;20259;-70
2023/03/30 02:46:53;;;;;;;6.65;5.88;;;;;20.30;99476.00;;;;2050040;28;20203;-71
2023/03/30 02:48:20;;;;;;;6.30;4.87;;;;;20.30;99477.00;;;;2074591;28;21116;-70
2023/03/30 02:49:45;;;;;;;5.63;4.70;;;;;20.30;99464.00;;;;2074121;28;20597;-71
2023/03/30 02:51:23;;;;;;;5.20;4.22;;;;;20.30;99473.00;;;;2071745;28;20366;-71
2023/03/30 02:52:41;;;;;;;5.55;5.00;;;;;20.30;99416.00;;;;2079972;28;20213;-71
2023/03/30 02:53:44;;;;;;;5.68;4.18;;;;;20.30;99459.00;;;;2074527;28;20261;-71
2023/03/30 02:55:03;;;;;;;6.72;5.13;;;;;20.30;99466.00;;;;2061643;28;20248;-70
2023/03/30 02:56:15;;;;;;;5.13;4.57;;;;;20.30;99461.00;;;;2069816;28;20242;-70
2023/03/30 02:57:56;;;;;;;6.35;4.50;;;;;20.20;99466.00;;;;2068393;28;20228;-71
2023/03/30 02:59:04;;;;;;;5.10;4.05;;;;;20.20;99455.00;;;;2077147;28;20212;-71
2023/03/30 03:00:09;;;;;;;6.70;5.05;;;;;20.30;99461.00;;;;2085585;28;20228;-71
2023/03/30 03:01:14;;;;;;;5.20;4.60;;;;;20.20;99457.00;;;;2064702;28;20235;-71
2023/03/30 03:02:18;;;;;;;6.32;4.40;;;;;20.30;99453.00;;;;2054696;28;20215;-70
2023/03/30 03:03:30;;;;;;;5.75;4.65;;;;;20.30;99442.00;;;;2071766;28;20220;-71
2023/03/30 03:04:33;;;;;;;4.75;4.07;;;;;20.30;99463.00;;;;2075568;28;20365;-70
2023/03/30 03:05:34;;;;;;;4.97;4.38;;;;;20.30;99439.00;;;;2077110;28;20568;-71
2023/03/30 03:06:36;;;;;;;4.10;3.70;;;;;20.30;99457.00;;;;2073772;28;20205;-70
2023/03/30 03:07:37;;;;;;;5.00;4.50;;;;;20.20;99469.00;;;;2071008;28;20213;-70
2023/03/30 03:08:38;;;;;;;6.00;4.30;;;;;20.30;99458.00;;;;2070508;28;20685;-70
2023/03/30 03:09:39;;;;;;;4.90;4.15;;;;;20.20;99459.00;;;;2075667;28;20548;-71
2023/03/30 03:10:40;;;;;;;5.90;4.00;;;;;20.20;99461.00;;;;2083208;28;20206;-71
2023/03/30 03:11:40;;;;;;;4.67;4.00;;;;;20.30;99462.00;;;;2083059;28;20230;-71
2023/03/30 03:12:41;;;;;;;5.67;4.33;;;;;20.20;99466.00;;;;2081839;28;20224;-71
2023/03/30 03:13:41;;;;;;;5.20;4.20;;;;;20.20;99454.00;;;;2068078;28;20202;-70
2023/03/30 03:14:42;;;;;;;4.90;4.20;;;;;20.20;99457.00;;;;2070832;28;20487;-70
2023/03/30 03:15:44;;;;;;;4.83;4.33;;;;;20.20;99448.00;;;;2082909;28;20248;-70
2023/03/30 03:16:44;;;;;;;5.50;4.10;;;;;20.20;99452.00;;;;2082520;28;20218;-71
2023/03/30 03:17:45;;;;;;;5.57;4.13;;;;;20.20;99453.00;;;;2087594;28;20316;-71
2023/03/30 03:18:45;;;;;;;4.50;3.60;;;;;20.20;99453.00;;;;2086840;28;20217;-70
2023/03/30 03:19:46;;;;;;;5.37;3.77;;;;;20.20;99452.00;;;;2085925;28;20482;-71
2023/03/30 03:20:47;;;;;;;5.10;3.77;;;;;20.20;99456.00;;;;2082348;28;20213;-70
2023/03/30 03:21:47;;;;;;;4.23;3.70;;;;;20.20;99458.00;;;;2082287;28;20221;-71
2023/03/30 03:22:47;;;;;;;5.93;4.57;;;;;20.20;99459.00;;;;2073509;28;20221;-70
2023/03/30 03:23:48;;;;;;;5.47;3.93;;;;;20.20;99465.00;;;;2071445;28;20762;-70
2023/03/30 03:24:48;;;;;;;4.50;4.10;;;;;20.20;99466.00;;;;2082791;28;20708;-71
2023/03/30 03:25:49;;;;;;;4.23;3.83;;;;;20.20;99468.00;;;;2082074;28;20328;-70
2023/03/30 03:26:49;;;;;;;4.40;3.67;;;;;20.20;99459.00;;;;2082382;28;20216;-71
2023/03/30 03:27:50;;;;;;;4.30;3.73;;;;;20.20;99449.00;;;;2084552;28;20219;-70
2023/03/30 03:28:50;;;;;;;5.00;4.03;;;;;20.20;99463.00;;;;2086254;28;20227;-70
2023/03/30 03:29:50;;;;;;;4.50;3.47;;;;;20.20;99464.00;;;;2078326;28;20245;-71
2023/03/30 03:30:51;;;;;;;4.30;3.77;;;;;20.20;99459.00;;;;2073655;28;20257;-70
2023/03/30 03:31:51;;;;;;;5.73;4.20;;;;;20.20;99477.00;;;;2085551;28;20239;-70
2023/03/30 03:32:51;;;;;;;4.80;3.53;;;;;20.20;99474.00;;;;2081683;28;20253;-70
2023/03/30 03:33:52;;;;;;;4.10;3.63;;;;;20.20;99474.00;;;;2085355;28;20248;-71
2023/03/30 03:34:52;;;;;;;4.80;3.90;;;;;20.20;99469.00;;;;2083757;28;20217;-70
2023/03/30 03:35:53;;;;;;;4.20;3.43;;;;;20.20;99481.00;;;;2085586;28;20240;-72
2023/03/30 03:36:53;;;;;;;4.73;3.37;;;;;20.20;99474.00;;;;2086853;28;20243;-71
2023/03/30 03:37:54;;;;;;;3.50;3.20;;;;;20.20;99470.00;;;;2086132;28;20201;-71
2023/03/30 03:38:54;;;;;;;8.60;3.40;;;;;20.20;99467.00;;;;2087305;28;20479;-70
2023/03/30 03:39:55;;;;;;;3.90;3.40;;;;;20.20;99469.00;;;;2072377;28;20210;-71
2023/03/30 03:40:56;;;;;;;4.67;3.20;;;;;20.20;99468.00;;;;2069957;28;20740;-71
2023/03/30 03:41:57;;;;;;;3.95;3.30;;;;;20.20;99466.00;;;;2087068;28;20672;-71
2023/03/30 03:42:57;;;;;;;4.97;3.60;;;;;20.20;99465.00;;;;2084627;28;20209;-71
2023/03/30 03:43:57;;;;;;;3.30;2.80;;;;;20.20;99468.00;;;;2087428;28;20240;-71
2023/03/30 03:44:57;;;;;;;4.30;3.37;;;;;20.20;99468.00;;;;2085067;28;20213;-70
2023/03/30 03:45:58;;;;;;;3.73;3.10;;;;;20.20;99466.00;;;;2087024;28;20208;-70
2023/03/30 03:46:58;;;;;;;5.37;3.40;;;;;20.20;99474.00;;;;2087200;28;20212;-70
2023/03/30 03:47:58;;;;;;;6.27;3.60;;;;;20.20;99468.00;;;;2086117;28;20234;-71
2023/03/30 03:48:59;;;;;;;5.03;2.80;;;;;20.20;99417.00;;;;2087106;28;20201;-71
2023/03/30 03:50:02;;;;;;;4.93;3.13;;;;;20.20;99472.00;;;;2086149;28;20206;-70
2023/03/30 03:51:03;;;;;;;3.55;2.72;;;;;20.20;99466.00;;;;2081892;28;20217;-70
2023/03/30 03:52:03;;;;;;;4.60;3.37;;;;;20.20;99463.00;;;;2081249;28;20576;-70
2023/03/30 03:53:03;;;;;;;5.00;3.63;;;;;20.20;99458.00;;;;2087094;28;20224;-70
2023/03/30 03:54:04;;;;;;;3.73;3.20;;;;;20.20;99462.00;;;;2079893;28;20263;-70
2023/03/30 03:55:05;;;;;;;4.10;3.70;;;;;20.20;99462.00;;;;2086441;28;20223;-70
2023/03/30 03:56:06;;;;;;;3.27;2.90;;;;;20.20;99452.00;;;;2087047;28;20258;-70
2023/03/30 03:57:06;;;;;;;3.58;3.03;;;;;20.20;99446.00;;;;2086398;28;20997;-70
2023/03/30 03:58:06;;;;;;;4.50;3.17;;;;;20.20;99446.00;;;;2085649;28;20213;-70
2023/03/30 03:59:07;;;;;;;4.63;3.40;;;;;20.20;99455.00;;;;2081328;28;20213;-70
2023/03/30 04:00:16;;;;;;;4.13;3.10;;;;;20.20;99437.00;;;;2087304;28;20579;-70
2023/03/30 04:01:17;;;;;;;4.70;3.40;;;;;20.20;99450.00;;;;2084790;28;20216;-70
2023/03/30 04:02:17;;;;;;;5.13;3.57;;;;;20.20;99445.00;;;;2086271;28;20209;-70
2023/03/30 04:03:18;;;;;;;3.70;3.20;;;;;20.20;99448.00;;;;2077112;28;20778;-70
2023/03/30 04:04:18;;;;;;;4.63;3.43;;;;;20.20;99451.00;;;;2074222;28;20683;-70
2023/03/30 04:05:18;;;;;;;4.47;3.03;;;;;20.20;99443.00;;;;2085167;28;20615;-71
2023/03/30 04:06:19;;;;;;;5.03;3.03;;;;;20.20;99427.00;;;;2085035;28;20603;-70
2023/03/30 04:07:20;;;;;;;3.17;2.60;;;;;20.20;99445.00;;;;2083248;28;20688;-70
2023/03/30 04:08:20;;;;;;;4.10;2.78;;;;;20.20;99444.00;;;;2087013;28;20221;-71
2023/03/30 04:09:21;;;;;;;3.10;2.80;;;;;20.20;99443.00;;;;2085479;28;20236;-71
2023/03/30 04:10:22;;;;;;;4.23;3.40;;;;;20.20;99453.00;;;;2084844;28;20223;-71
2023/03/30 04:11:22;;;;;;;4.60;2.73;;;;;20.20;99448.00;;;;2087144;28;20467;-71
2023/03/30 04:12:22;;;;;;;3.73;3.00;;;;;20.20;99451.00;;;;2085585;28;20253;-70
2023/03/30 04:13:23;;;;;;;3.83;2.73;;;;;20.20;99446.00;;;;2085528;28;20219;-71
2023/03/30 04:14:23;;;;;;;5.53;2.57;;;;;20.20;99437.00;;;;2083390;28;20707;-71
2023/03/30 04:15:23;;;;;;;6.00;3.30;;;;;20.20;99445.00;;;;2079602;28;20255;-70
2023/03/30 04:16:24;;;;;;;3.87;2.77;;;;;20.20;99430.00;;;;2072077;28;20217;-71
2023/03/30 04:17:24;;;;;;;3.27;2.97;;;;;20.20;99441.00;;;;2075428;28;20233;-72
2023/03/30 04:18:30;;;;;;;3.80;2.57;;;;;20.20;99437.00;;;;2071939;28;20222;-70
2023/03/30 04:19:30;;;;;;;3.22;2.92;;;;;20.20;99428.00;;;;2074368;28;20208;-71
2023/03/30 04:20:30;;;;;;;3.53;2.73;;;;;20.20;99423.00;;;;2078168;28;20212;-70
2023/03/30 04:21:31;;;;;;;5.70;3.30;;;;;20.20;99414.00;;;;2077453;28;20210;-70
2023/03/30 04:22:40;;;;;;;3.80;3.00;;;;;20.20;99427.00;;;;2072937;28;20271;-71
2023/03/30 04:23:44;;;;;;;4.45;2.53;;;;;20.10;99425.00;;;;2078676;28;20721;-70
2023/03/30 04:24:45;;;;;;;4.40;2.88;;;;;20.20;99435.00;;;;2087014;28;20217;-70
2023/03/30 04:25:45;;;;;;;4.30;3.20;;;;;20.20;99439.00;;;;2078043;28;20296;-70
2023/03/30 04:26:47;;;;;;;5.10;2.70;;;;;20.20;99422.00;;;;2074811;28;20213;-70
2023/03/30 04:27:50;;;;;;;4.00;2.90;;;;;20.20;99410.00;;;;2084013;28;20205;-71
2023/03/30 04:28:52;;;;;;;3.17;2.50;;;;;20.20;99415.00;;;;2077145;28;20217;-71
2023/03/30 04:29:56;;;;;;;2.90;2.35;;;;;20.20;99425.00;;;;2073975;28;20222;-71
2023/03/30 04:30:58;;;;;;;3.58;2.30;;;;;20.20;99418.00;;;;2083509;28;20308;-70
2023/03/30 04:32:02;;;;;;;3.55;2.58;;;;;20.10;99411.00;;;;2086497;28;20209;-70
2023/03/30 04:33:03;;;;;;;4.13;2.90;;;;;20.10;99413.00;;;;2080761;28;20293;-71
2023/03/30 04:34:03;;;;;;;2.80;2.35;;;;;20.10;99419.00;;;;2085247;28;20204;-71
2023/03/30 04:35:05;;;;;;;4.10;2.60;;;;;19.90;99420.00;;;;2085154;28;20691;-70
2023/03/30 04:36:05;;;;;;;3.35;2.40;;;;;20.10;99422.00;;;;2087633;28;20213;-70
2023/03/30 04:37:06;;;;;;;2.80;2.50;;;;;20.10;99425.00;;;;2079433;28;20217;-70
2023/03/30 04:38:06;;;;;;;4.27;2.40;;;;;20.10;99431.00;;;;2078477;28;20205;-71
2023/03/30 04:39:07;;;;;;;5.27;2.87;;;;;20.10;99429.00;;;;2088684;28;20570;-71
2023/03/30 04:40:11;;;;;;;3.70;2.73;;;;;20.20;99410.00;;;;2087493;28;20621;-70
2023/03/30 04:41:13;;;;;;;4.70;3.55;;;;;20.10;99405.00;;;;2081276;28;20289;-71
2023/03/30 04:42:14;;;;;;;3.90;2.20;;;;;20.10;99413.00;;;;2080329;28;20259;-71
2023/03/30 04:43:18;;;;;;;2.90;2.60;;;;;20.20;99407.00;;;;2087191;28;20224;-70
2023/03/30 04:44:19;;;;;;;5.65;2.53;;;;;20.10;99410.00;;;;2087692;28;20224;-70
2023/03/30 04:45:20;;;;;;;4.27;2.80;;;;;20.10;99405.00;;;;2087651;28;20213;-71
2023/03/30 04:46:20;;;;;;;3.53;2.60;;;;;20.20;99407.00;;;;2078305;28;20457;-70
2023/03/30 04:47:20;;;;;;;2.93;2.40;;;;;20.10;99406.00;;;;2072972;28;20726;-71
2023/03/30 04:48:21;;;;;;;4.20;3.07;;;;;20.10;99420.00;;;;2085556;28;20240;-71
2023/03/30 04:49:22;;;;;;;4.82;2.88;;;;;20.10;99414.00;;;;2081265;28;20214;-71
2023/03/30 04:50:22;;;;;;;4.77;2.60;;;;;20.20;99396.00;;;;2086736;28;20219;-71
2023/03/30 04:51:23;;;;;;;4.07;3.13;;;;;20.20;99420.00;;;;2085178;28;20247;-71
2023/03/30 04:52:23;;;;;;;3.87;2.57;;;;;20.20;99417.00;;;;2086981;28;20217;-71
2023/03/30 04:53:23;;;;;;;2.60;2.20;;;;;20.20;99402.00;;;;2085850;28;20393;-71
2023/03/30 04:54:24;;;;;;;5.50;2.90;;;;;20.20;99407.00;;;;2083347;28;20279;-71
2023/03/30 04:55:24;;;;;;;4.40;2.90;;;;;20.20;99409.00;;;;2086751;28;20213;-71
2023/03/30 04:56:25;;;;;;;3.87;2.20;;;;;20.10;99413.00;;;;2085346;28;20231;-71
2023/03/30 04:57:25;;;;;;;3.40;2.20;;;;;20.20;99409.00;;;;2082052;28;20326;-70
2023/03/30 04:58:25;;;;;;;3.10;2.40;;;;;20.20;99420.00;;;;2088337;28;20260;-71
2023/03/30 04:59:26;;;;;;;4.10;2.50;;;;;20.20;99421.00;;;;2087102;28;20267;-70
2023/03/30 05:00:26;;;;;;;3.70;2.37;;;;;20.20;99416.00;;;;2088583;28;20213;-70
2023/03/30 05:01:27;;;;;;;3.77;2.20;;;;;20.20;99425.00;;;;2087378;28;20216;-70
2023/03/30 05:02:27;;;;;;;3.00;2.53;;;;;20.20;99428.00;;;;2088186;28;20267;-70
2023/03/30 05:03:28;;;;;;;3.33;2.60;;;;;20.20;99423.00;;;;2086066;28;20211;-71
2023/03/30 05:04:28;;;;;;;4.57;2.50;;;;;20.20;99434.00;;;;2086663;28;20213;-71
2023/03/30 05:05:28;;;;;;;2.30;2.10;;;;;20.20;99426.00;;;;2087212;28;20224;-71
2023/03/30 05:06:29;;;;;;;3.93;2.23;;;;;20.20;99427.00;;;;2088460;28;20291;-71
2023/03/30 05:07:30;;;;;;;3.03;2.20;;;;;20.00;99429.00;;;;2084673;28;20214;-71
2023/03/30 05:08:31;;;;;;;2.40;2.20;;;;;20.20;99442.00;;;;2085451;28;20256;-70
2023/03/30 05:09:32;;;;;;;2.88;2.40;;;;;20.20;99426.00;;;;2086303;28;20205;-71
2023/03/30 05:10:32;;;;;;;2.90;2.63;;;;;20.30;99422.00;;;;2087844;28;20201;-70
2023/03/30 05:11:32;;;;;;;2.40;2.20;;;;;20.30;99426.00;;;;2085081;28;20209;-70
2023/03/30 05:12:33;;;;;;;3.90;2.33;;;;;20.30;99418.00;;;;2087264;28;20240;-71
2023/03/30 05:13:33;;;;;;;2.73;2.20;;;;;20.30;99421.00;;;;2086513;28;20229;-71
2023/03/30 05:14:33;;;;;;;2.80;2.20;;;;;20.30;99419.00;;;;2087503;28;20215;-71
2023/03/30 05:15:34;;;;;;;2.83;2.43;;;;;20.30;99417.00;;;;2079676;28;20724;-70
2023/03/30 05:16:35;;;;;;;3.03;2.30;;;;;20.30;99409.00;;;;2078041;28;20316;-70
2023/03/30 05:17:37;;;;;;;3.80;2.40;;;;;20.30;99426.00;;;;2088328;28;20213;-70
2023/03/30 05:18:38;;;;;;;2.85;2.30;;;;;20.40;99404.00;;;;2087564;28;20879;-70
2023/03/30 05:19:38;;;;;;;3.03;2.13;;;;;20.30;99420.00;;;;2070822;28;20210;-71
2023/03/30 05:20:38;;;;;;;3.07;2.10;;;;;20.40;99418.00;;;;2067306;28;20845;-71